Time;durP1;ratioP1;P1;durP2;ratioP2;P2;SDS_P1;SDS_P2;PMS_P1;PMS_P2;Temp;Humidity;BMP_temperature;BMP_pressure;BME280_temperature;BME280_humidity;BME280_pressure;Samples;Min_cycle;Max_cycle;Signal;HPM_P1;HPM_P2
2021/11/21 00:01:06;;;;;;;1.27;1.17;;;7.20;99.90;;;;;;4987026;28;20061;-67
2021/11/21 00:03:33;;;;;;;6.15;1.27;;;7.20;99.90;;;;;;4985905;28;20046;-66
2021/11/21 00:06:00;;;;;;;2.30;0.80;;;7.20;99.90;;;;;;4987544;28;20108;-69
2021/11/21 00:08:27;;;;;;;1.48;1.30;;;7.20;99.90;;;;;;4983868;28;20042;-66
2021/11/21 00:10:56;;;;;;;2.80;0.90;;;7.20;99.90;;;;;;4986727;28;20141;-68
2021/11/21 00:13:24;;;;;;;6.13;1.67;;;7.20;99.90;;;;;;4984393;28;20050;-68
2021/11/21 00:15:51;;;;;;;2.78;1.27;;;7.20;99.90;;;;;;4987029;28;20627;-67
2021/11/21 00:18:19;;;;;;;2.03;1.33;;;7.20;99.90;;;;;;4985593;28;20058;-67
2021/11/21 00:20:46;;;;;;;6.07;2.28;;;7.20;99.90;;;;;;4986226;28;20042;-71
2021/11/21 00:23:13;;;;;;;2.08;0.98;;;7.20;99.90;;;;;;4983175;28;20054;-64
2021/11/21 00:25:40;;;;;;;3.72;1.08;;;7.20;99.90;;;;;;4986125;28;20050;-69
2021/11/21 00:28:07;;;;;;;2.88;0.63;;;7.20;99.90;;;;;;4985116;28;20074;-74
2021/11/21 00:30:34;;;;;;;4.22;1.63;;;7.20;99.90;;;;;;4984655;28;20101;-64
2021/11/21 00:33:02;;;;;;;6.07;1.38;;;7.20;99.90;;;;;;4987148;28;20496;-65
2021/11/21 00:35:29;;;;;;;2.78;1.73;;;7.20;99.90;;;;;;4986405;28;20053;-69
2021/11/21 00:37:56;;;;;;;3.38;1.75;;;7.10;99.90;;;;;;4981383;28;20050;-67
2021/11/21 00:40:23;;;;;;;4.97;1.70;;;7.20;99.90;;;;;;4986766;28;20158;-66
2021/11/21 00:42:51;;;;;;;3.45;0.90;;;7.10;99.90;;;;;;4988410;28;20050;-72
2021/11/21 00:45:18;;;;;;;1.77;0.90;;;7.10;99.90;;;;;;4986700;28;20038;-64
2021/11/21 00:47:45;;;;;;;7.15;1.33;;;7.10;99.90;;;;;;4986941;28;20054;-65
2021/11/21 00:50:14;;;;;;;2.40;0.90;;;7.10;99.90;;;;;;4984893;28;20058;-67
2021/11/21 00:52:42;;;;;;;3.72;1.17;;;7.10;99.90;;;;;;4977567;28;20590;-66
2021/11/21 00:57:38;;;;;;;4.53;1.15;;;7.10;99.90;;;;;;4985438;28;20050;-72
2021/11/21 01:00:09;;;;;;;1.92;1.08;;;7.10;99.90;;;;;;4984441;28;20097;-67
2021/11/21 01:02:38;;;;;;;2.75;1.67;;;7.10;99.90;;;;;;4982370;28;20038;-66
2021/11/21 01:05:08;;;;;;;4.15;1.25;;;7.10;99.90;;;;;;4984844;28;20781;-65
2021/11/21 01:07:38;;;;;;;3.33;1.83;;;7.00;99.90;;;;;;4983102;28;20050;-64
2021/11/21 01:10:10;;;;;;;4.88;1.75;;;7.00;99.90;;;;;;4985492;28;20578;-68
2021/11/21 01:12:40;;;;;;;6.10;2.03;;;7.00;99.90;;;;;;4981210;28;20047;-65
2021/11/21 01:15:13;;;;;;;3.78;1.20;;;7.00;99.90;;;;;;4985870;28;20141;-69
2021/11/21 01:17:40;;;;;;;9.70;3.58;;;7.00;99.90;;;;;;4981881;28;20043;-66
2021/11/21 01:20:09;;;;;;;5.72;1.95;;;7.00;99.90;;;;;;4982157;28;20465;-69
2021/11/21 01:22:36;;;;;;;4.75;1.45;;;6.90;99.90;;;;;;4982040;28;20125;-67
2021/11/21 01:25:06;;;;;;;3.22;1.00;;;6.90;99.90;;;;;;4983779;28;20725;-64
2021/11/21 01:27:33;;;;;;;3.30;1.00;;;6.90;99.90;;;;;;4982817;28;20096;-65
2021/11/21 01:30:00;;;;;;;1.77;1.40;;;6.90;99.90;;;;;;4984245;28;20054;-68
2021/11/21 01:32:27;;;;;;;4.90;0.98;;;6.90;99.90;;;;;;4982266;28;20061;-64
2021/11/21 01:34:54;;;;;;;4.45;1.55;;;6.90;99.90;;;;;;4984841;28;20050;-63
2021/11/21 01:37:21;;;;;;;5.70;1.85;;;6.90;99.90;;;;;;4984388;28;20097;-65
2021/11/21 01:39:48;;;;;;;2.25;1.60;;;6.90;99.90;;;;;;4983149;28;20042;-65
2021/11/21 01:42:15;;;;;;;4.30;1.08;;;6.90;99.90;;;;;;4982233;28;20042;-64
2021/11/21 01:44:42;;;;;;;2.88;1.40;;;6.90;99.90;;;;;;4984523;28;20042;-66
2021/11/21 01:47:09;;;;;;;4.45;1.25;;;6.90;99.90;;;;;;4983049;28;20038;-68
2021/11/21 01:49:36;;;;;;;7.53;1.80;;;6.90;99.90;;;;;;4985798;28;20133;-66
2021/11/21 01:52:04;;;;;;;3.72;1.25;;;6.90;99.90;;;;;;4983869;28;20054;-66
2021/11/21 01:54:32;;;;;;;3.47;1.50;;;6.90;99.90;;;;;;4980702;28;20558;-65
2021/11/21 01:56:59;;;;;;;3.60;1.35;;;6.90;99.90;;;;;;4984323;28;20038;-65
2021/11/21 01:59:26;;;;;;;4.70;1.38;;;6.90;99.90;;;;;;5013256;28;20219;-69
2021/11/21 02:01:53;;;;;;;2.67;1.42;;;6.90;99.90;;;;;;4983118;28;20042;-65
2021/11/21 02:04:21;;;;;;;2.08;1.33;;;6.90;99.90;;;;;;4981644;28;20042;-69
2021/11/21 02:06:48;;;;;;;1.60;1.20;;;6.80;99.90;;;;;;4984121;28;20097;-67
2021/11/21 02:09:16;;;;;;;2.95;1.20;;;6.80;99.90;;;;;;4982314;28;20089;-65
2021/11/21 02:11:43;;;;;;;10.15;1.13;;;6.80;99.90;;;;;;4982271;28;20101;-69
2021/11/21 02:14:10;;;;;;;5.82;2.05;;;6.80;99.90;;;;;;4982763;28;20046;-68
2021/11/21 02:16:38;;;;;;;2.63;0.77;;;6.80;99.90;;;;;;4980563;28;20046;-66
2021/11/21 02:19:07;;;;;;;5.13;1.10;;;6.80;99.90;;;;;;4984922;28;20054;-66
2021/11/21 02:21:34;;;;;;;4.85;1.27;;;6.80;99.90;;;;;;4984051;28;20435;-70
2021/11/21 02:24:01;;;;;;;3.38;1.10;;;6.80;99.90;;;;;;4984488;28;20109;-71
2021/11/21 02:26:28;;;;;;;3.55;1.42;;;6.80;99.90;;;;;;4980876;28;20047;-68
2021/11/21 02:28:56;;;;;;;10.30;2.78;;;6.70;99.90;;;;;;4983519;28;20046;-73
2021/11/21 02:31:24;;;;;;;3.63;1.27;;;6.70;99.90;;;;;;4982891;28;20043;-65
2021/11/21 02:33:52;;;;;;;6.82;1.15;;;6.70;99.90;;;;;;4984205;28;20059;-71
2021/11/21 02:36:19;;;;;;;3.28;1.30;;;6.70;99.90;;;;;;4998587;28;20912;-65
2021/11/21 02:38:47;;;;;;;3.15;0.70;;;6.70;99.90;;;;;;4981444;28;20066;-66
2021/11/21 02:41:15;;;;;;;3.47;1.05;;;6.70;99.90;;;;;;4984448;28;20050;-66
2021/11/21 02:43:44;;;;;;;4.85;1.02;;;6.70;99.90;;;;;;4979420;28;20062;-68
2021/11/21 02:46:13;;;;;;;3.15;2.15;;;6.70;99.90;;;;;;4981445;28;20081;-66
2021/11/21 02:48:40;;;;;;;3.92;1.70;;;6.70;99.90;;;;;;4978665;28;20067;-68
2021/11/21 02:51:09;;;;;;;4.40;0.95;;;6.70;99.90;;;;;;5016117;28;20051;-71
2021/11/21 02:53:38;;;;;;;2.17;0.73;;;6.70;99.90;;;;;;4982030;28;20062;-68
2021/11/21 02:56:10;;;;;;;1.20;1.10;;;6.60;99.90;;;;;;4978262;28;20446;-66
2021/11/21 02:58:41;;;;;;;1.40;1.00;;;6.60;99.90;;;;;;4980031;28;20158;-65
2021/11/21 03:01:20;;;;;;;3.00;0.80;;;6.50;99.90;;;;;;4984522;28;20101;-67
2021/11/21 03:03:49;;;;;;;4.60;0.50;;;6.50;99.90;;;;;;4982575;28;20042;-67
2021/11/21 03:06:16;;;;;;;4.82;0.68;;;6.40;99.90;;;;;;4984781;28;20054;-67
2021/11/21 03:08:43;;;;;;;1.42;0.60;;;6.40;99.90;;;;;;4978828;28;20096;-65
2021/11/21 03:11:20;;;;;;;5.97;2.70;;;6.40;99.90;;;;;;4981496;28;20046;-68
2021/11/21 03:13:47;;;;;;;4.40;0.60;;;6.40;99.90;;;;;;4982908;28;20054;-64
2021/11/21 03:16:15;;;;;;;1.65;0.60;;;6.40;99.90;;;;;;4981313;28;20058;-67
2021/11/21 03:18:42;;;;;;;4.93;1.45;;;6.40;99.90;;;;;;4982699;28;20050;-67
2021/11/21 03:21:09;;;;;;;3.10;0.63;;;6.30;99.90;;;;;;4981257;28;20050;-65
2021/11/21 03:23:36;;;;;;;0.70;0.70;;;6.40;99.90;;;;;;4984184;28;20050;-68
2021/11/21 03:26:03;;;;;;;1.38;0.70;;;6.40;99.90;;;;;;4979664;28;20062;-64
2021/11/21 03:28:30;;;;;;;2.90;0.80;;;6.30;99.90;;;;;;4980182;28;20078;-64
2021/11/21 03:30:57;;;;;;;1.52;0.73;;;6.30;99.90;;;;;;4984108;28;20058;-64
2021/11/21 03:33:25;;;;;;;4.05;0.77;;;6.30;99.90;;;;;;4982381;28;20414;-65
2021/11/21 03:35:52;;;;;;;2.25;0.70;;;6.30;99.90;;;;;;4984444;28;20054;-64
2021/11/21 03:38:19;;;;;;;1.80;0.70;;;6.30;99.90;;;;;;4982391;28;20448;-65
2021/11/21 03:40:47;;;;;;;3.10;1.13;;;6.20;99.90;;;;;;4981701;28;20065;-65
2021/11/21 03:43:14;;;;;;;3.05;0.70;;;6.20;99.90;;;;;;4982905;28;20042;-65
2021/11/21 03:45:41;;;;;;;2.20;1.02;;;6.20;99.90;;;;;;4987991;28;20054;-68
2021/11/21 03:48:08;;;;;;;2.35;0.70;;;6.20;99.90;;;;;;4985202;28;20519;-67
2021/11/21 03:50:35;;;;;;;1.40;0.73;;;6.10;99.90;;;;;;4985046;28;20361;-66
2021/11/21 03:53:02;;;;;;;0.80;0.57;;;6.10;99.90;;;;;;4984699;28;20046;-65
2021/11/21 03:55:30;;;;;;;1.10;0.57;;;6.10;99.90;;;;;;4982139;28;20326;-66
2021/11/21 03:57:57;;;;;;;2.22;0.40;;;6.20;99.90;;;;;;4987478;28;20043;-66
2021/11/21 04:00:25;;;;;;;0.65;0.55;;;6.10;99.90;;;;;;4977820;28;20052;-73
2021/11/21 04:02:55;;;;;;;1.63;0.57;;;6.10;99.90;;;;;;4986206;28;20035;-64
2021/11/21 04:05:23;;;;;;;1.52;0.68;;;6.10;99.90;;;;;;4990819;28;20042;-68
2021/11/21 04:07:50;;;;;;;2.58;0.60;;;6.10;99.90;;;;;;4987734;28;20039;-68
2021/11/21 04:10:17;;;;;;;0.98;0.73;;;6.10;99.90;;;;;;4983626;28;20412;-68
2021/11/21 04:12:45;;;;;;;0.75;0.47;;;6.10;99.90;;;;;;4983658;28;20046;-65
2021/11/21 04:15:12;;;;;;;1.88;0.80;;;6.00;99.90;;;;;;4986209;28;20124;-68
2021/11/21 04:17:40;;;;;;;1.08;0.80;;;6.00;99.90;;;;;;4986729;28;20042;-68
2021/11/21 04:20:09;;;;;;;0.98;0.47;;;6.00;99.90;;;;;;4985136;28;20034;-70
2021/11/21 04:22:36;;;;;;;1.58;1.00;;;6.00;99.90;;;;;;4985804;28;20047;-68
2021/11/21 04:25:04;;;;;;;0.90;0.50;;;6.00;99.90;;;;;;4983971;28;20046;-65
2021/11/21 04:27:31;;;;;;;1.42;0.88;;;6.00;99.90;;;;;;4987057;28;20081;-73
2021/11/21 04:29:58;;;;;;;1.17;0.35;;;5.90;99.90;;;;;;4985085;28;20054;-66
2021/11/21 04:32:25;;;;;;;3.22;0.85;;;5.90;99.90;;;;;;4984666;28;20081;-65
2021/11/21 04:34:52;;;;;;;2.05;1.20;;;5.90;99.90;;;;;;4985161;28;20136;-65
2021/11/21 04:37:20;;;;;;;0.57;0.40;;;5.90;99.90;;;;;;4985305;28;20560;-67
2021/11/21 04:39:47;;;;;;;3.47;0.73;;;5.90;99.90;;;;;;4985495;28;20499;-66
2021/11/21 04:42:16;;;;;;;0.80;0.43;;;5.90;99.90;;;;;;4983542;28;20042;-68
2021/11/21 04:44:44;;;;;;;1.80;0.70;;;5.90;99.90;;;;;;4985514;28;20476;-65
2021/11/21 04:47:11;;;;;;;2.55;0.50;;;5.90;99.90;;;;;;4985824;28;20097;-72
2021/11/21 04:49:39;;;;;;;1.38;0.68;;;5.90;99.90;;;;;;4982771;28;20050;-65
2021/11/21 04:52:06;;;;;;;1.55;0.70;;;5.80;99.90;;;;;;4982993;28;20054;-67
2021/11/21 04:54:34;;;;;;;0.55;0.50;;;5.80;99.90;;;;;;4985528;28;20056;-66
2021/11/21 04:57:01;;;;;;;3.28;1.13;;;5.80;99.90;;;;;;4982928;28;20460;-72
2021/11/21 04:59:28;;;;;;;0.98;0.60;;;5.80;99.90;;;;;;4985943;28;20413;-66
2021/11/21 05:01:55;;;;;;;0.50;0.50;;;5.80;99.90;;;;;;4982941;28;20046;-64
2021/11/21 05:04:23;;;;;;;2.67;0.90;;;5.80;99.90;;;;;;4982442;28;21433;-65
2021/11/21 05:06:50;;;;;;;0.45;0.38;;;5.80;99.90;;;;;;4985201;28;20049;-67
2021/11/21 05:09:17;;;;;;;0.70;0.40;;;5.80;99.90;;;;;;4982070;28;20579;-64
2021/11/21 05:11:44;;;;;;;0.68;0.52;;;5.80;99.90;;;;;;4983090;28;20081;-68
2021/11/21 05:14:14;;;;;;;3.15;0.95;;;5.80;99.90;;;;;;4985685;28;20046;-70
2021/11/21 05:16:41;;;;;;;1.70;0.60;;;5.80;99.90;;;;;;4980114;28;20089;-73
2021/11/21 05:19:09;;;;;;;2.78;0.80;;;5.80;99.90;;;;;;4983058;28;20050;-65
2021/11/21 05:21:36;;;;;;;1.80;0.85;;;5.70;99.90;;;;;;4985965;28;20053;-64
2021/11/21 05:24:03;;;;;;;0.98;0.65;;;5.80;99.90;;;;;;4979869;28;20076;-64
2021/11/21 05:26:30;;;;;;;0.63;0.50;;;5.90;99.90;;;;;;4984146;28;20109;-68
2021/11/21 05:28:57;;;;;;;0.52;0.40;;;5.90;99.90;;;;;;4985044;28;20054;-68
2021/11/21 05:31:27;;;;;;;0.30;0.30;;;5.90;99.90;;;;;;4986076;28;20102;-68
2021/11/21 05:33:54;;;;;;;0.80;0.70;;;5.90;99.90;;;;;;4982923;28;20061;-64
2021/11/21 05:36:21;;;;;;;1.15;0.57;;;5.90;99.90;;;;;;4983855;28;20097;-66
2021/11/21 05:38:48;;;;;;;1.85;0.57;;;6.00;99.90;;;;;;4985183;28;20475;-66
2021/11/21 05:41:15;;;;;;;2.60;0.73;;;6.00;99.90;;;;;;4984184;28;20113;-72
2021/11/21 05:43:42;;;;;;;2.63;0.47;;;6.00;99.90;;;;;;4985014;28;20696;-68
2021/11/21 05:46:09;;;;;;;1.65;0.77;;;6.00;99.90;;;;;;4981213;28;20062;-69
2021/11/21 05:48:36;;;;;;;1.15;0.32;;;6.00;99.90;;;;;;4973349;28;20047;-67
2021/11/21 05:51:03;;;;;;;0.93;0.40;;;6.00;99.90;;;;;;4984046;28;20468;-68
2021/11/21 05:53:30;;;;;;;3.15;0.57;;;6.10;99.90;;;;;;4980742;28;20030;-64
2021/11/21 05:55:57;;;;;;;2.17;0.95;;;6.10;99.90;;;;;;4977639;28;20054;-63
2021/11/21 05:58:25;;;;;;;2.50;0.65;;;6.00;99.90;;;;;;4978179;28;20043;-64
2021/11/21 06:00:52;;;;;;;2.00;0.40;;;6.10;99.90;;;;;;4983684;28;20038;-65
2021/11/21 06:03:20;;;;;;;4.07;1.27;;;6.00;99.90;;;;;;4981427;28;20094;-64
2021/11/21 06:05:46;;;;;;;2.15;0.60;;;6.00;99.90;;;;;;4981842;28;20327;-65
2021/11/21 06:08:13;;;;;;;1.75;0.70;;;6.00;99.90;;;;;;4985020;28;20051;-65
2021/11/21 06:10:41;;;;;;;2.47;0.93;;;6.00;99.90;;;;;;4981635;28;20108;-68
2021/11/21 06:13:09;;;;;;;3.72;0.40;;;6.00;99.90;;;;;;4983249;28;20114;-64
2021/11/21 06:15:36;;;;;;;2.72;0.50;;;6.00;99.90;;;;;;5001360;28;20050;-65
2021/11/21 06:18:04;;;;;;;0.75;0.63;;;6.00;99.90;;;;;;4982942;28;20050;-73
2021/11/21 06:20:31;;;;;;;0.55;0.38;;;6.00;99.90;;;;;;4982718;28;20737;-73
2021/11/21 06:22:58;;;;;;;0.80;0.75;;;6.00;99.90;;;;;;4983704;28;20522;-64
2021/11/21 06:25:26;;;;;;;0.47;0.28;;;6.00;99.90;;;;;;4984393;28;20526;-64
2021/11/21 06:27:53;;;;;;;2.13;0.60;;;5.90;99.90;;;;;;4981638;28;20053;-64
2021/11/21 06:30:20;;;;;;;2.08;0.90;;;5.90;99.90;;;;;;4984371;28;20149;-64
2021/11/21 06:32:47;;;;;;;1.75;0.40;;;5.90;99.90;;;;;;4984736;28;20054;-64
2021/11/21 06:35:14;;;;;;;0.40;0.40;;;5.80;99.90;;;;;;4984453;28;20043;-66
2021/11/21 06:37:44;;;;;;;0.35;0.32;;;5.90;99.90;;;;;;4982805;28;20076;-71
2021/11/21 06:40:12;;;;;;;2.25;0.40;;;5.90;99.90;;;;;;4980238;28;20058;-72
2021/11/21 06:42:41;;;;;;;2.40;0.43;;;5.90;99.90;;;;;;4975787;28;21096;-66
2021/11/21 06:45:12;;;;;;;0.40;0.40;;;5.90;99.90;;;;;;4981351;28;20172;-69
2021/11/21 06:47:40;;;;;;;1.88;1.05;;;5.90;99.90;;;;;;4985346;28;20054;-69
2021/11/21 06:50:11;;;;;;;0.50;0.50;;;5.90;99.90;;;;;;4981846;28;20050;-70
2021/11/21 06:52:39;;;;;;;1.33;0.50;;;5.90;99.90;;;;;;4981817;28;20073;-65
2021/11/21 06:55:07;;;;;;;0.68;0.20;;;5.90;99.90;;;;;;4982108;28;20151;-65
2021/11/21 06:57:34;;;;;;;0.63;0.38;;;5.90;99.90;;;;;;4978851;28;20076;-66
2021/11/21 07:00:08;;;;;;;1.45;0.35;;;5.90;99.90;;;;;;4985249;28;20046;-69
2021/11/21 07:02:35;;;;;;;0.95;0.55;;;5.90;99.90;;;;;;4982376;28;20145;-64
2021/11/21 07:05:03;;;;;;;0.63;0.32;;;5.80;99.90;;;;;;4985043;28;20078;-67
2021/11/21 07:07:30;;;;;;;1.55;0.32;;;5.90;99.90;;;;;;4982657;28;20116;-64
2021/11/21 07:09:57;;;;;;;0.80;0.40;;;5.90;99.90;;;;;;4982529;28;20484;-66
2021/11/21 07:12:25;;;;;;;1.05;0.70;;;5.90;99.90;;;;;;4980385;28;20465;-66
2021/11/21 07:15:14;;;;;;;3.60;0.45;;;5.90;99.90;;;;;;4982614;28;20058;-68
2021/11/21 07:17:42;;;;;;;0.88;0.60;;;5.90;99.90;;;;;;5016298;28;20038;-72
2021/11/21 07:20:15;;;;;;;2.47;0.40;;;5.90;99.90;;;;;;4987011;28;20042;-71
2021/11/21 07:22:48;;;;;;;2.97;0.40;;;5.80;99.90;;;;;;4986037;28;20061;-65
2021/11/21 07:25:17;;;;;;;0.85;0.50;;;5.80;99.90;;;;;;4984733;28;20145;-65
2021/11/21 07:27:45;;;;;;;4.70;0.77;;;5.90;99.90;;;;;;4987860;28;20042;-66
2021/11/21 07:30:15;;;;;;;2.92;0.40;;;5.90;99.90;;;;;;4984953;28;20083;-65
2021/11/21 07:32:43;;;;;;;3.50;0.60;;;5.90;99.90;;;;;;4987191;28;20069;-67
2021/11/21 07:35:12;;;;;;;3.17;0.40;;;5.90;99.90;;;;;;4984935;28;20334;-67
2021/11/21 07:37:40;;;;;;;3.30;0.55;;;5.90;99.90;;;;;;4987220;28;20077;-69
2021/11/21 07:40:10;;;;;;;0.70;0.43;;;5.80;99.90;;;;;;4986898;28;20138;-66
2021/11/21 07:42:38;;;;;;;2.25;0.40;;;5.80;99.90;;;;;;4983688;28;20046;-64
2021/11/21 07:45:07;;;;;;;1.25;0.43;;;5.80;99.90;;;;;;4987757;28;20046;-65
2021/11/21 07:47:34;;;;;;;1.58;0.95;;;5.80;99.90;;;;;;4986455;28;20100;-68
2021/11/21 07:50:01;;;;;;;1.27;0.55;;;5.80;99.90;;;;;;4987453;28;20133;-72
2021/11/21 07:52:28;;;;;;;1.15;0.20;;;5.80;99.90;;;;;;4979866;28;20169;-67
2021/11/21 07:54:55;;;;;;;3.30;0.98;;;5.80;99.90;;;;;;4986491;28;20550;-70
2021/11/21 07:57:22;;;;;;;1.17;0.38;;;5.80;99.90;;;;;;4984075;28;20061;-65
2021/11/21 07:59:49;;;;;;;2.55;0.60;;;5.70;99.90;;;;;;4995326;28;20816;-66
2021/11/21 08:02:16;;;;;;;1.27;0.45;;;5.70;99.90;;;;;;4983601;28;20054;-69
2021/11/21 08:04:43;;;;;;;3.90;0.43;;;5.70;99.90;;;;;;4986545;28;20042;-70
2021/11/21 08:07:10;;;;;;;0.85;0.30;;;5.70;99.90;;;;;;4985473;28;20093;-67
2021/11/21 08:09:37;;;;;;;2.50;0.30;;;5.70;99.90;;;;;;4981704;28;20101;-69
2021/11/21 08:12:05;;;;;;;0.95;0.30;;;5.70;99.90;;;;;;4984310;28;20157;-67
2021/11/21 08:14:32;;;;;;;0.85;0.30;;;5.70;99.90;;;;;;4983859;28;20165;-64
2021/11/21 08:16:59;;;;;;;0.68;0.40;;;5.70;99.90;;;;;;4986344;28;20050;-69
2021/11/21 08:19:26;;;;;;;2.42;0.70;;;5.70;99.90;;;;;;4984885;28;20100;-66
2021/11/21 08:21:53;;;;;;;2.58;0.30;;;5.70;99.90;;;;;;4984784;28;20046;-64
2021/11/21 08:24:20;;;;;;;0.80;0.40;;;5.70;99.90;;;;;;4983059;28;20046;-70
2021/11/21 08:26:47;;;;;;;1.08;0.50;;;5.70;99.90;;;;;;4985510;28;20053;-64
2021/11/21 08:29:14;;;;;;;2.08;0.40;;;5.60;99.90;;;;;;4986305;28;20461;-66
2021/11/21 08:31:57;;;;;;;2.17;0.70;;;5.60;99.90;;;;;;4986116;28;20081;-65
2021/11/21 08:34:25;;;;;;;2.85;0.65;;;5.60;99.90;;;;;;4977857;28;20046;-63
2021/11/21 08:36:53;;;;;;;1.20;0.68;;;5.60;99.90;;;;;;4984865;28;20073;-66
2021/11/21 08:39:21;;;;;;;2.75;0.50;;;5.60;99.90;;;;;;4986646;28;20046;-64
2021/11/21 08:41:50;;;;;;;1.00;0.38;;;5.60;99.90;;;;;;4983855;28;20048;-65
2021/11/21 08:44:17;;;;;;;1.75;0.45;;;5.60;99.90;;;;;;4987249;28;20047;-66
2021/11/21 08:46:46;;;;;;;1.27;0.60;;;5.50;99.90;;;;;;4981824;28;20140;-67
2021/11/21 08:49:14;;;;;;;0.93;0.10;;;5.50;99.90;;;;;;4979842;28;20053;-66
2021/11/21 08:51:43;;;;;;;1.08;0.30;;;5.50;99.90;;;;;;4983332;28;20038;-75
2021/11/21 08:54:11;;;;;;;1.00;0.47;;;5.50;99.90;;;;;;4986638;28;20121;-70
2021/11/21 08:56:38;;;;;;;1.45;0.35;;;5.60;99.90;;;;;;4982204;28;20125;-74
2021/11/21 08:59:05;;;;;;;0.80;0.30;;;5.60;99.90;;;;;;4984415;28;20051;-65
2021/11/21 09:01:33;;;;;;;0.95;0.52;;;5.60;99.90;;;;;;4985495;28;20404;-66
2021/11/21 09:04:00;;;;;;;2.10;0.50;;;5.60;99.90;;;;;;4986085;28;20046;-64
2021/11/21 09:06:27;;;;;;;2.17;0.82;;;5.70;99.90;;;;;;4983724;28;20635;-65
2021/11/21 09:08:55;;;;;;;0.70;0.70;;;5.70;99.90;;;;;;4986619;28;20046;-65
2021/11/21 09:11:22;;;;;;;2.67;0.82;;;5.70;99.90;;;;;;4986040;28;20069;-66
2021/11/21 09:13:50;;;;;;;0.73;0.38;;;5.70;99.90;;;;;;4982592;28;20049;-65
2021/11/21 09:16:18;;;;;;;6.75;1.38;;;5.70;99.90;;;;;;4985457;28;20065;-64
2021/11/21 09:18:45;;;;;;;3.30;0.50;;;5.60;99.90;;;;;;4982040;28;20061;-64
2021/11/21 09:21:12;;;;;;;1.45;0.85;;;5.60;99.90;;;;;;4999399;28;20097;-66
2021/11/21 09:23:39;;;;;;;1.10;0.40;;;5.60;99.90;;;;;;4988390;28;20077;-65
2021/11/21 09:26:06;;;;;;;1.08;0.45;;;5.60;99.90;;;;;;4989094;28;20050;-73
2021/11/21 09:28:35;;;;;;;2.42;1.20;;;5.50;99.90;;;;;;4982627;28;20500;-64
2021/11/21 09:31:02;;;;;;;0.88;0.45;;;5.50;99.90;;;;;;4983640;28;20464;-68
2021/11/21 09:33:29;;;;;;;1.38;0.40;;;5.40;99.90;;;;;;4982425;28;20042;-64
2021/11/21 09:35:56;;;;;;;0.63;0.25;;;5.40;99.90;;;;;;4983261;28;20592;-69
2021/11/21 09:38:24;;;;;;;1.10;0.60;;;5.40;99.90;;;;;;4984115;28;20496;-64
2021/11/21 09:40:51;;;;;;;1.88;0.30;;;5.30;99.90;;;;;;4983939;28;20652;-68
2021/11/21 09:43:19;;;;;;;1.08;0.55;;;5.30;99.90;;;;;;4984016;28;20104;-67
2021/11/21 09:45:47;;;;;;;0.95;0.30;;;5.30;99.90;;;;;;4998512;28;20042;-68
2021/11/21 09:48:15;;;;;;;4.00;0.50;;;5.30;99.90;;;;;;4981152;28;20068;-67
2021/11/21 09:50:43;;;;;;;0.30;0.28;;;5.30;99.90;;;;;;4983531;28;20448;-64
2021/11/21 09:53:12;;;;;;;1.80;0.32;;;5.30;99.90;;;;;;4984102;28;20050;-68
2021/11/21 09:55:40;;;;;;;1.63;0.50;;;5.30;99.90;;;;;;4988439;28;20112;-69
2021/11/21 09:58:07;;;;;;;1.77;0.20;;;5.30;99.90;;;;;;4989329;28;20574;-65
2021/11/21 10:00:35;;;;;;;0.50;0.45;;;5.20;99.90;;;;;;4982431;28;20456;-67
2021/11/21 10:03:14;;;;;;;0.75;0.22;;;5.30;99.90;;;;;;4981073;28;20038;-68
2021/11/21 10:05:47;;;;;;;0.93;0.20;;;5.20;99.90;;;;;;4985107;28;20034;-64
2021/11/21 10:08:16;;;;;;;0.93;0.20;;;5.20;99.90;;;;;;4981717;28;20077;-69
2021/11/21 10:10:54;;;;;;;1.92;0.55;;;5.20;99.90;;;;;;4998241;28;20050;-72
2021/11/21 10:13:28;;;;;;;1.13;0.47;;;5.30;99.90;;;;;;4977366;28;20038;-64
2021/11/21 10:15:57;;;;;;;0.25;0.25;;;5.30;99.90;;;;;;4981210;28;20050;-64
2021/11/21 10:18:25;;;;;;;1.10;0.30;;;5.30;99.90;;;;;;4983530;28;20054;-67
2021/11/21 10:20:52;;;;;;;1.10;1.10;;;5.20;99.90;;;;;;4983109;28;20050;-70
2021/11/21 10:23:19;;;;;;;2.75;0.65;;;5.20;99.90;;;;;;4984798;28;20069;-64
2021/11/21 10:25:51;;;;;;;0.47;0.25;;;5.20;99.90;;;;;;4989686;28;20480;-66
2021/11/21 10:28:29;;;;;;;1.50;0.50;;;5.10;99.90;;;;;;4979533;28;20415;-63
2021/11/21 10:31:06;;;;;;;0.10;0.10;;;5.20;99.90;;;;;;4982299;28;20898;-64
2021/11/21 10:33:43;;;;;;;0.73;0.70;;;5.20;99.90;;;;;;4984394;28;20042;-64
2021/11/21 10:36:22;;;;;;;2.67;0.28;;;5.10;99.90;;;;;;4982273;28;20455;-67
2021/11/21 10:38:51;;;;;;;7.28;0.40;;;5.00;99.90;;;;;;4983439;28;20046;-66
2021/11/21 10:41:28;;;;;;;4.40;0.40;;;5.00;99.90;;;;;;4982603;28;20058;-65
2021/11/21 10:43:56;;;;;;;1.00;0.28;;;5.00;99.90;;;;;;4973790;28;20117;-70
2021/11/21 10:46:45;;;;;;;4.55;0.28;;;5.00;99.90;;;;;;4979171;28;20042;-64
2021/11/21 10:49:30;;;;;;;1.13;0.30;;;5.00;99.90;;;;;;4983097;28;20528;-68
2021/11/21 10:51:57;;;;;;;2.63;0.52;;;5.00;99.90;;;;;;4985256;28;20109;-66
2021/11/21 10:54:49;;;;;;;4.85;0.85;;;5.10;99.90;;;;;;4982234;28;20042;-68
2021/11/21 10:57:20;;;;;;;1.92;0.30;;;5.00;99.90;;;;;;4981309;28;20867;-65
2021/11/21 10:59:52;;;;;;;0.50;0.47;;;4.90;99.90;;;;;;4985319;28;20050;-64
2021/11/21 11:02:26;;;;;;;1.17;0.20;;;4.90;99.90;;;;;;4988664;28;20097;-63
2021/11/21 11:04:58;;;;;;;0.57;0.47;;;5.00;99.90;;;;;;4984109;28;20404;-65
2021/11/21 11:07:26;;;;;;;1.52;0.40;;;4.90;99.90;;;;;;4986832;28;20400;-64
2021/11/21 11:09:55;;;;;;;1.52;0.30;;;4.90;99.90;;;;;;4987029;28;20054;-67
2021/11/21 11:12:24;;;;;;;1.35;0.65;;;4.90;99.90;;;;;;4986735;28;20081;-68
2021/11/21 11:14:53;;;;;;;4.75;0.45;;;4.90;99.90;;;;;;4988208;28;20093;-64
2021/11/21 11:17:20;;;;;;;4.53;1.02;;;4.90;99.90;;;;;;4985677;28;20479;-65
2021/11/21 11:19:47;;;;;;;0.80;0.45;;;4.80;99.90;;;;;;4987461;28;20514;-65
2021/11/21 11:22:15;;;;;;;0.73;0.40;;;4.80;99.90;;;;;;4983692;28;20116;-69
2021/11/21 11:24:44;;;;;;;1.08;0.40;;;4.90;99.90;;;;;;4986731;28;20074;-69
2021/11/21 11:27:29;;;;;;;0.30;0.20;;;4.90;99.90;;;;;;4984068;28;20097;-67
2021/11/21 11:29:56;;;;;;;0.60;0.32;;;4.90;99.90;;;;;;4986316;28;20050;-65
2021/11/21 11:32:28;;;;;;;2.92;0.70;;;4.80;99.90;;;;;;4985785;28;20093;-68
2021/11/21 11:34:57;;;;;;;0.80;0.35;;;4.90;99.90;;;;;;4987293;28;20479;-64
2021/11/21 11:37:34;;;;;;;0.90;0.20;;;4.80;99.90;;;;;;4986062;28;20144;-66
2021/11/21 11:40:02;;;;;;;1.30;0.98;;;4.80;99.90;;;;;;4983912;28;20834;-65
2021/11/21 11:42:38;;;;;;;2.10;0.75;;;4.80;99.90;;;;;;4983927;28;20138;-63
2021/11/21 11:45:10;;;;;;;2.58;0.50;;;4.80;99.90;;;;;;4986737;28;20539;-70
2021/11/21 11:47:38;;;;;;;1.05;0.30;;;4.80;99.90;;;;;;4988120;28;20053;-65
2021/11/21 11:50:08;;;;;;;5.60;0.43;;;4.80;99.90;;;;;;4984699;28;20536;-65
2021/11/21 11:53:08;;;;;;;0.45;0.40;;;4.70;99.90;;;;;;4984209;28;20050;-67
2021/11/21 11:55:35;;;;;;;1.08;0.40;;;4.70;99.90;;;;;;4964210;28;20732;-66
2021/11/21 11:58:02;;;;;;;2.72;0.73;;;4.80;99.90;;;;;;4984353;28;20123;-71
2021/11/21 12:00:37;;;;;;;1.95;0.32;;;4.70;99.90;;;;;;4986002;28;20066;-65
2021/11/21 12:03:37;;;;;;;2.28;0.40;;;4.70;99.90;;;;;;4984536;28;20137;-66
2021/11/21 12:06:06;;;;;;;2.72;0.43;;;4.70;99.90;;;;;;4978872;28;20046;-64
2021/11/21 12:08:33;;;;;;;0.47;0.20;;;4.80;99.90;;;;;;4983412;28;20510;-63
2021/11/21 12:11:00;;;;;;;2.95;1.10;;;4.70;99.90;;;;;;4986178;28;20587;-64
2021/11/21 12:13:34;;;;;;;0.38;0.32;;;4.70;99.90;;;;;;4987295;28;20049;-67
2021/11/21 12:16:04;;;;;;;0.45;0.45;;;4.70;99.90;;;;;;4986515;28;20046;-71
2021/11/21 12:18:55;;;;;;;2.63;0.50;;;4.70;99.90;;;;;;4983868;28;20042;-63
2021/11/21 12:21:59;;;;;;;0.20;0.10;;;4.70;99.90;;;;;;4984586;28;20043;-66
2021/11/21 12:24:31;;;;;;;0.55;0.40;;;4.70;99.90;;;;;;4961635;28;20142;-66
2021/11/21 12:27:15;;;;;;;0.55;0.30;;;4.70;99.90;;;;;;4982006;28;20856;-63
2021/11/21 12:29:44;;;;;;;3.70;0.30;;;4.60;99.90;;;;;;4988751;28;20100;-69
2021/11/21 12:32:24;;;;;;;4.68;0.45;;;4.70;99.90;;;;;;4984824;28;20046;-70
2021/11/21 12:34:52;;;;;;;4.78;0.60;;;4.70;99.90;;;;;;4982705;28;20050;-69
2021/11/21 12:37:19;;;;;;;3.10;0.22;;;4.70;99.90;;;;;;4983706;28;20112;-66
2021/11/21 12:40:09;;;;;;;1.25;0.77;;;4.70;99.90;;;;;;4986005;28;20050;-68
2021/11/21 12:42:39;;;;;;;0.43;0.20;;;4.70;99.90;;;;;;4983737;28;20057;-68
2021/11/21 12:45:10;;;;;;;1.10;0.32;;;4.70;99.90;;;;;;4985860;28;20042;-69
2021/11/21 12:47:37;;;;;;;;;;;4.70;99.90;;;;;;4980513;28;20132;-68
2021/11/21 12:50:06;;;;;;;9.20;0.80;;;4.70;99.90;;;;;;4984533;28;19995;-67
2021/11/21 12:52:33;;;;;;;0.60;0.28;;;4.60;99.90;;;;;;4985125;28;20043;-64
2021/11/21 12:55:00;;;;;;;1.30;0.20;;;4.60;99.90;;;;;;4984794;28;20055;-64
2021/11/21 12:57:45;;;;;;;1.52;0.15;;;4.60;99.90;;;;;;4985215;28;20054;-64
2021/11/21 13:00:13;;;;;;;6.82;0.47;;;4.70;99.90;;;;;;4985827;28;20069;-65
2021/11/21 13:02:40;;;;;;;1.08;0.40;;;4.70;99.90;;;;;;4978178;28;20047;-64
2021/11/21 13:05:07;;;;;;;0.80;0.40;;;4.60;99.90;;;;;;4985353;28;20047;-65
2021/11/21 13:07:43;;;;;;;0.30;0.20;;;4.60;99.90;;;;;;4986117;28;20038;-65
2021/11/21 13:10:18;;;;;;;2.70;0.20;;;4.60;99.90;;;;;;4984850;28;20492;-68